createdAt,value
2018-03-28T00:01:29.746Z,99212
2018-03-28T00:06:33.565Z,99217
2018-03-28T00:11:37.262Z,99213
2018-03-28T00:16:42.304Z,99215
2018-03-28T00:21:46.417Z,99219
2018-03-28T00:26:50.325Z,99217
2018-03-28T00:31:55.642Z,99214
2018-03-28T00:37:01.122Z,99206
2018-03-28T00:42:07.634Z,99203
2018-03-28T00:47:10.744Z,99203
2018-03-28T00:52:16.025Z,99197
2018-03-28T00:57:20.424Z,99198
2018-03-28T01:02:24.790Z,99182
2018-03-28T01:07:29.258Z,99192
2018-03-28T01:12:34.923Z,99191
2018-03-28T01:17:38.950Z,99190
2018-03-28T01:22:42.248Z,99190
2018-03-28T01:27:46.894Z,99181
2018-03-28T01:32:48.413Z,99172
2018-03-28T01:37:49.963Z,99167
2018-03-28T01:42:51.502Z,99162
2018-03-28T01:47:53.021Z,99154
2018-03-28T01:52:54.536Z,99148
2018-03-28T01:57:56.093Z,99146
2018-03-28T02:02:57.651Z,99143
2018-03-28T02:07:59.173Z,99147
2018-03-28T02:13:00.689Z,99140
2018-03-28T02:18:02.258Z,99147
2018-03-28T02:23:03.776Z,99150
2018-03-28T02:28:05.277Z,99141
2018-03-28T02:33:06.801Z,99138
2018-03-28T02:38:08.330Z,99135
2018-03-28T02:43:09.902Z,99141
2018-03-28T02:48:11.446Z,99142
2018-03-28T02:53:12.994Z,99150
2018-03-28T02:58:14.519Z,99142
2018-03-28T03:03:16.834Z,99150
2018-03-28T03:08:18.335Z,99153
2018-03-28T03:13:19.885Z,99149
2018-03-28T03:18:21.556Z,99155
2018-03-28T03:23:23.083Z,99144
2018-03-28T03:28:25.358Z,99150
2018-03-28T03:33:27.646Z,99147
2018-03-28T03:38:29.170Z,99145
2018-03-28T03:43:30.668Z,99141
2018-03-28T03:48:32.281Z,99144
2018-03-28T03:53:33.841Z,99147
2018-03-28T03:58:35.375Z,99143
2018-03-28T04:03:37.008Z,99149
2018-03-28T04:08:38.544Z,99148
2018-03-28T04:13:40.942Z,99152
2018-03-28T04:18:42.485Z,99140
2018-03-28T04:23:44.090Z,99131
2018-03-28T04:28:45.610Z,99140
2018-03-28T04:33:47.129Z,99140
2018-03-28T04:38:48.690Z,99140
2018-03-28T04:43:50.276Z,99132
2018-03-28T04:48:52.540Z,99127
2018-03-28T04:53:54.080Z,99125
2018-03-28T04:58:55.606Z,99119
2018-03-28T05:03:57.117Z,99117
2018-03-28T05:08:58.638Z,99117
2018-03-28T05:14:00.195Z,99118
2018-03-28T05:19:01.734Z,99117
2018-03-28T05:24:10.140Z,99114
2018-03-28T05:29:11.794Z,99126
2018-03-28T05:34:13.382Z,99120
2018-03-28T05:39:21.828Z,99125
2018-03-28T05:44:24.117Z,99127
2018-03-28T05:49:25.669Z,99126
2018-03-28T05:54:27.250Z,99131
2018-03-28T05:59:29.677Z,99122
2018-03-28T06:04:31.237Z,99130
2018-03-28T06:09:32.827Z,99135
2018-03-28T06:14:34.552Z,99133
2018-03-28T06:19:37.919Z,99141
2018-03-28T06:24:39.834Z,99138
2018-03-28T06:29:41.551Z,99147
2018-03-28T06:34:43.462Z,99149
2018-03-28T06:39:45.732Z,99143
2018-03-28T06:44:49.140Z,99147
2018-03-28T06:49:55.024Z,99133
2018-03-28T06:54:59.666Z,99126
2018-03-28T07:05:47.267Z,99146
2018-03-28T07:10:48.802Z,99149
2018-03-28T07:15:50.786Z,99157
2018-03-28T07:20:53.206Z,99155
2018-03-28T07:25:54.785Z,99167
2018-03-28T07:30:57.693Z,99163
2018-03-28T07:36:02.159Z,99157
2018-03-28T07:41:06.741Z,99151
2018-03-28T07:46:13.369Z,99151
2018-03-28T07:51:18.652Z,99144
2018-03-28T07:56:24.558Z,99156
2018-03-28T08:01:26.251Z,99153
2018-03-28T08:06:27.785Z,99148
2018-03-28T08:11:29.337Z,99141
2018-03-28T08:16:30.958Z,99146
2018-03-28T08:21:32.462Z,99144
2018-03-28T08:26:34.109Z,99146
2018-03-28T08:31:35.654Z,99150
2018-03-28T08:36:37.201Z,99163
2018-03-28T08:41:38.725Z,99160
2018-03-28T08:46:41.055Z,99161
2018-03-28T08:51:42.568Z,99152
2018-03-28T08:56:44.988Z,99143
2018-03-28T09:01:46.541Z,99142
2018-03-28T09:06:48.954Z,99140
2018-03-28T09:11:50.506Z,99134
2018-03-28T09:16:52.070Z,99140
2018-03-28T09:21:53.801Z,99134
2018-03-28T09:26:55.379Z,99131
2018-03-28T09:31:56.905Z,99127
2018-03-28T09:36:58.474Z,99130
2018-03-28T09:42:00.001Z,99126
2018-03-28T09:47:02.278Z,99126
2018-03-28T09:52:03.968Z,99133
2018-03-28T09:57:05.527Z,99143
2018-03-28T10:02:09.811Z,99134
2018-03-28T10:07:11.360Z,99118
2018-03-28T10:12:12.924Z,99121
2018-03-28T10:17:14.445Z,99110
2018-03-28T10:22:16.021Z,99112
2018-03-28T10:27:18.595Z,99127
2018-03-28T10:32:20.135Z,99115
2018-03-28T10:37:21.715Z,99112
2018-03-28T10:42:23.385Z,99116
2018-03-28T10:47:25.917Z,99086
2018-03-28T10:52:28.160Z,99084
2018-03-28T10:57:29.701Z,99074
2018-03-28T11:02:38.272Z,99077
2018-03-28T11:07:39.837Z,99077
2018-03-28T11:12:41.392Z,99060
2018-03-28T11:17:42.969Z,99044
2018-03-28T11:22:44.521Z,99044
2018-03-28T11:27:46.271Z,99033
2018-03-28T11:32:47.821Z,99017
2018-03-28T11:37:50.190Z,99012
2018-03-28T11:42:51.715Z,98990
2018-03-28T11:47:53.286Z,98989
2018-03-28T11:52:54.927Z,98974
2018-03-28T11:57:56.402Z,98975
2018-03-28T12:02:57.966Z,98955
2018-03-28T12:07:59.531Z,98954
2018-03-28T12:13:01.085Z,98933
2018-03-28T12:18:03.368Z,98930
2018-03-28T12:23:05.697Z,98928
2018-03-28T12:28:07.223Z,98923
2018-03-28T12:33:09.709Z,98906
2018-03-28T12:38:19.074Z,98887
2018-03-28T12:43:20.646Z,98891
2018-03-28T12:48:22.185Z,98882
2018-03-28T12:53:23.769Z,98873
2018-03-28T12:58:25.304Z,98871
2018-03-28T13:03:26.880Z,98865
2018-03-28T13:08:28.417Z,98847
2018-03-28T13:13:30.088Z,98835
2018-03-28T13:18:31.673Z,98830
2018-03-28T13:23:33.217Z,98808
2018-03-28T13:28:34.769Z,98801
2018-03-28T13:33:36.296Z,98791
2018-03-28T13:38:38.597Z,98780
2018-03-28T13:43:40.890Z,98771
2018-03-28T13:48:43.166Z,98755
2018-03-28T13:53:45.436Z,98752
2018-03-28T13:58:46.978Z,98743
2018-03-28T14:03:48.682Z,98725
2018-03-28T14:08:50.323Z,98719
2018-03-28T14:13:51.891Z,98702
2018-03-28T14:18:53.472Z,98695
2018-03-28T14:23:55.062Z,98664
2018-03-28T14:28:57.344Z,98640
2018-03-28T14:33:58.917Z,98639
2018-03-28T14:39:01.215Z,98630
2018-03-28T14:44:03.526Z,98622
2018-03-28T14:49:05.126Z,98614
2018-03-28T14:54:06.690Z,98606
2018-03-28T14:59:08.286Z,98596
2018-03-28T15:04:09.852Z,98583
2018-03-28T15:09:11.438Z,98573
2018-03-28T15:14:13.713Z,98561
2018-03-28T15:19:16.002Z,98546
2018-03-28T15:24:18.281Z,98539
2018-03-28T15:29:19.829Z,98529
2018-03-28T15:34:21.518Z,98534
2018-03-28T15:39:23.071Z,98517
2018-03-28T15:44:24.646Z,98521
2018-03-28T15:49:26.168Z,98511
2018-03-28T15:54:27.742Z,98503
2018-03-28T15:59:29.290Z,98493
2018-03-28T16:04:30.853Z,98480
2018-03-28T16:09:32.423Z,98451
2018-03-28T16:14:33.953Z,98437
2018-03-28T16:19:35.549Z,98433
2018-03-28T16:24:37.779Z,98418
2018-03-28T16:29:39.446Z,98407
2018-03-28T16:34:41.037Z,98407
2018-03-28T16:39:42.562Z,98406
2018-03-28T16:44:44.133Z,98398
2018-03-28T16:49:45.670Z,98396
2018-03-28T16:54:47.934Z,98393
2018-03-28T16:59:49.495Z,98381
2018-03-28T17:04:58.025Z,98388
2018-03-28T17:09:59.564Z,98397
2018-03-28T17:15:01.178Z,98385
2018-03-28T17:20:02.715Z,98377
2018-03-28T17:25:04.250Z,98386
2018-03-28T17:30:05.876Z,98385
2018-03-28T17:35:07.333Z,98385
2018-03-28T17:40:08.858Z,98379
2018-03-28T17:45:10.437Z,98370
2018-03-28T17:50:11.985Z,98374
2018-03-28T17:55:13.533Z,98360
2018-03-28T18:00:15.805Z,98364
2018-03-28T18:05:17.511Z,98369
2018-03-28T18:10:19.289Z,98365
2018-03-28T18:15:20.849Z,98359
2018-03-28T18:20:22.444Z,98350
2018-03-28T18:25:23.987Z,98357
2018-03-28T18:30:25.597Z,98346
2018-03-28T18:35:27.138Z,98335
2018-03-28T18:40:28.717Z,98354
2018-03-28T18:45:31.020Z,98368
2018-03-28T18:50:32.624Z,98351
2018-03-28T18:55:34.194Z,98401
2018-03-28T19:00:36.073Z,98387
2018-03-28T19:05:38.549Z,98380
2018-03-28T19:10:40.229Z,98383
2018-03-28T19:15:41.800Z,98388
2018-03-28T19:20:43.382Z,98392
2018-03-28T19:25:45.650Z,98391
2018-03-28T19:30:48.056Z,98405
2018-03-28T19:35:50.349Z,98408
2018-03-28T19:40:52.645Z,98414
2018-03-28T19:45:54.249Z,98431
2018-03-28T19:50:55.835Z,98435
2018-03-28T19:55:57.432Z,98442
2018-03-28T20:00:59.942Z,98454
2018-03-28T20:06:01.446Z,98462
2018-03-28T20:11:02.937Z,98476
2018-03-28T20:16:05.135Z,98477
2018-03-28T20:21:07.395Z,98481
2018-03-28T20:26:08.903Z,98491
2018-03-28T20:31:17.275Z,98496
2018-03-28T20:36:18.863Z,98509
2018-03-28T20:41:20.326Z,98515
2018-03-28T20:46:21.856Z,98519
2018-03-28T20:51:23.405Z,98536
2018-03-28T20:56:24.913Z,98517
2018-03-28T21:01:26.414Z,98542
2018-03-28T21:06:28.722Z,98561
2018-03-28T21:11:30.328Z,98583
2018-03-28T21:16:31.930Z,98590
2018-03-28T21:21:33.508Z,98609
2018-03-28T21:26:35.785Z,98636
2018-03-28T21:31:37.337Z,98649
2018-03-28T21:36:38.882Z,98657
2018-03-28T21:41:40.416Z,98666
2018-03-28T21:46:42.153Z,98682
2018-03-28T21:51:45.284Z,98694
2018-03-28T21:56:46.854Z,98691
2018-03-28T22:01:49.145Z,98689
2018-03-28T22:06:51.463Z,98671
2018-03-28T22:11:52.990Z,98700
2018-03-28T22:16:55.246Z,98674
2018-03-28T22:21:56.970Z,98700
2018-03-28T22:26:58.534Z,98725
2018-03-28T22:32:00.076Z,98750
2018-03-28T22:37:02.375Z,98773
2018-03-28T22:42:04.659Z,98792
2018-03-28T22:47:06.963Z,98806
2018-03-28T22:52:08.621Z,98820
2018-03-28T22:57:10.146Z,98829
2018-03-28T23:02:11.693Z,98847
2018-03-28T23:07:13.220Z,98841
2018-03-28T23:12:15.212Z,98854
2018-03-28T23:17:16.767Z,98853
2018-03-28T23:22:37.648Z,98862
2018-03-28T23:27:39.200Z,98894
2018-03-28T23:32:40.725Z,98909
2018-03-28T23:37:43.020Z,98918
2018-03-28T23:42:44.696Z,98915
2018-03-28T23:47:46.361Z,98934
2018-03-28T23:52:47.856Z,98951
2018-03-28T23:57:49.381Z,98960
